createdAt,value
2019-01-10T00:01:35.855Z,2.50
2019-01-10T00:04:05.817Z,2.50
2019-01-10T00:06:35.703Z,2.50
2019-01-10T00:09:08.529Z,2.50
2019-01-10T00:11:37.875Z,2.50
2019-01-10T00:14:07.259Z,2.40
2019-01-10T00:16:36.619Z,2.40
2019-01-10T00:19:06.029Z,2.30
2019-01-10T00:21:35.937Z,2.30
2019-01-10T00:24:05.549Z,2.30
2019-01-10T00:26:34.944Z,2.30
2019-01-10T00:29:04.416Z,2.20
2019-01-10T00:31:33.852Z,2.10
2019-01-10T00:34:03.303Z,2.10
2019-01-10T00:36:32.762Z,2.00
2019-01-10T00:39:02.476Z,2.00
2019-01-10T00:41:32.336Z,2.00
2019-01-10T00:44:01.790Z,2.00
2019-01-10T00:46:31.206Z,2.00
2019-01-10T00:49:00.764Z,1.90
2019-01-10T00:51:30.184Z,2.00
2019-01-10T00:53:59.560Z,1.90
2019-01-10T00:56:29.267Z,1.90
2019-01-10T00:58:58.681Z,1.90
2019-01-10T01:01:28.073Z,1.80
2019-01-10T01:03:57.489Z,1.80
2019-01-10T01:06:27.027Z,1.70
2019-01-10T01:08:56.453Z,1.70
2019-01-10T01:11:25.891Z,1.60
2019-01-10T01:13:55.272Z,1.60
2019-01-10T01:16:24.735Z,1.50
2019-01-10T01:18:54.513Z,1.50
2019-01-10T01:21:23.849Z,1.50
2019-01-10T01:23:53.255Z,1.50
2019-01-10T01:26:22.652Z,1.50
2019-01-10T01:28:52.017Z,1.50
2019-01-10T01:31:21.354Z,1.50
2019-01-10T01:33:50.774Z,1.50
2019-01-10T01:36:20.071Z,1.50
2019-01-10T01:38:49.410Z,1.40
2019-01-10T01:41:18.815Z,1.40
2019-01-10T01:43:48.188Z,1.40
2019-01-10T01:46:17.610Z,1.40
2019-01-10T01:48:46.991Z,1.40
2019-01-10T01:51:16.395Z,1.30
2019-01-10T01:53:45.807Z,1.30
2019-01-10T01:56:15.240Z,1.30
2019-01-10T01:58:44.527Z,1.30
2019-01-10T02:01:15.078Z,1.30
2019-01-10T02:03:44.484Z,1.20
2019-01-10T02:06:13.850Z,1.20
2019-01-10T02:08:43.264Z,1.20
2019-01-10T02:11:12.732Z,1.20
2019-01-10T02:13:42.105Z,1.20
2019-01-10T02:16:11.456Z,1.20
2019-01-10T02:18:40.827Z,1.20
2019-01-10T02:21:10.139Z,1.30
2019-01-10T02:23:39.507Z,1.20
2019-01-10T02:26:09.001Z,1.20
2019-01-10T02:28:38.377Z,1.30
2019-01-10T02:31:07.872Z,1.30
2019-01-10T02:33:37.267Z,1.40
2019-01-10T02:36:06.982Z,1.40
2019-01-10T02:38:36.324Z,1.40
2019-01-10T02:41:05.687Z,1.40
2019-01-10T02:43:35.111Z,1.50
2019-01-10T02:46:04.591Z,1.40
2019-01-10T02:48:33.811Z,1.40
2019-01-10T02:51:03.225Z,1.40
2019-01-10T02:53:32.604Z,1.40
2019-01-10T02:56:01.973Z,1.40
2019-01-10T02:58:31.381Z,1.40
2019-01-10T03:01:00.802Z,1.40
2019-01-10T03:03:30.159Z,1.30
2019-01-10T03:05:59.547Z,1.30
2019-01-10T03:08:28.842Z,1.30
2019-01-10T03:10:58.120Z,1.30
2019-01-10T03:13:36.264Z,1.40
2019-01-10T03:15:58.529Z,1.30
2019-01-10T03:18:27.898Z,1.40
2019-01-10T03:20:57.284Z,1.40
2019-01-10T03:23:26.667Z,1.40
2019-01-10T03:25:56.089Z,1.40
2019-01-10T03:28:25.407Z,1.40
2019-01-10T03:30:54.721Z,1.40
2019-01-10T03:33:24.057Z,1.40
2019-01-10T03:35:53.490Z,1.40
2019-01-10T03:38:22.835Z,1.40
2019-01-10T03:40:52.261Z,1.40
2019-01-10T03:43:21.781Z,1.40
2019-01-10T03:45:51.247Z,1.40
2019-01-10T03:48:20.606Z,1.40
2019-01-10T03:50:50.020Z,1.40
2019-01-10T03:53:19.356Z,1.40
2019-01-10T03:55:48.656Z,1.40
2019-01-10T03:58:18.093Z,1.50
2019-01-10T04:00:47.391Z,1.40
2019-01-10T04:03:16.741Z,1.40
2019-01-10T04:05:46.107Z,1.40
2019-01-10T04:08:15.407Z,1.40
2019-01-10T04:10:44.957Z,1.40
2019-01-10T04:13:14.375Z,1.40
2019-01-10T04:15:43.651Z,1.40
2019-01-10T04:18:13.075Z,1.40
2019-01-10T04:20:42.375Z,1.50
2019-01-10T04:23:11.848Z,1.50
2019-01-10T04:25:42.951Z,1.60
2019-01-10T04:28:12.435Z,1.60
2019-01-10T04:30:41.841Z,1.60
2019-01-10T04:33:11.190Z,1.70
2019-01-10T04:35:40.560Z,1.70
2019-01-10T04:38:09.948Z,1.70
2019-01-10T04:40:39.228Z,1.70
2019-01-10T04:43:08.606Z,1.70
2019-01-10T04:45:37.967Z,1.80
2019-01-10T04:48:07.309Z,1.80
2019-01-10T04:50:36.728Z,1.80
2019-01-10T04:53:06.087Z,1.80
2019-01-10T04:55:35.471Z,1.80
2019-01-10T04:58:04.842Z,1.80
2019-01-10T05:00:34.231Z,1.80
2019-01-10T05:03:03.659Z,1.80
2019-01-10T05:05:33.049Z,1.70
2019-01-10T05:08:02.391Z,1.70
2019-01-10T05:10:31.867Z,1.70
2019-01-10T05:13:01.163Z,1.70
2019-01-10T05:15:30.524Z,1.70
2019-01-10T05:17:59.923Z,1.70
2019-01-10T05:20:29.190Z,1.70
2019-01-10T05:22:58.528Z,1.70
2019-01-10T05:25:27.891Z,1.70
2019-01-10T05:27:57.173Z,1.60
2019-01-10T05:30:26.538Z,1.60
2019-01-10T05:32:56.048Z,1.60
2019-01-10T05:35:25.621Z,1.60
2019-01-10T05:37:54.963Z,1.60
2019-01-10T05:40:24.295Z,1.50
2019-01-10T05:42:53.667Z,1.50
2019-01-10T05:45:23.003Z,1.50
2019-01-10T05:47:52.298Z,1.60
2019-01-10T05:50:21.680Z,1.60
2019-01-10T05:52:51.031Z,1.60
2019-01-10T05:55:22.055Z,1.60
2019-01-10T05:57:51.452Z,1.60
2019-01-10T06:00:26.554Z,1.70
2019-01-10T06:02:56.038Z,1.70
2019-01-10T06:05:25.372Z,1.70
2019-01-10T06:07:54.690Z,1.80
2019-01-10T06:10:26.266Z,1.80
2019-01-10T06:12:55.642Z,1.80
2019-01-10T06:15:25.116Z,1.80
2019-01-10T06:17:54.479Z,1.80
2019-01-10T06:20:23.983Z,1.80
2019-01-10T06:22:53.382Z,1.80
2019-01-10T06:25:22.708Z,1.90
2019-01-10T06:27:52.188Z,1.90
2019-01-10T06:30:23.328Z,1.90
2019-01-10T06:32:52.810Z,1.90
2019-01-10T06:35:22.196Z,1.90
2019-01-10T06:37:51.615Z,1.90
2019-01-10T06:40:22.249Z,1.90
2019-01-10T06:42:51.591Z,1.90
2019-01-10T06:45:20.884Z,1.90
2019-01-10T06:47:50.299Z,1.90
2019-01-10T06:50:19.721Z,1.90
2019-01-10T06:52:49.138Z,1.80
2019-01-10T06:55:18.469Z,1.90
2019-01-10T06:57:47.890Z,1.90
2019-01-10T07:00:22.328Z,1.90
2019-01-10T07:02:51.800Z,1.90
2019-01-10T07:05:21.275Z,1.80
2019-01-10T07:07:56.334Z,1.90
2019-01-10T07:10:24.476Z,1.90
2019-01-10T07:12:53.897Z,1.90
2019-01-10T07:15:23.294Z,1.80
2019-01-10T07:17:52.651Z,1.80
2019-01-10T07:20:22.124Z,1.90
2019-01-10T07:22:52.733Z,1.90
2019-01-10T07:25:22.157Z,1.80
2019-01-10T07:27:51.543Z,1.80
2019-01-10T07:30:24.745Z,1.90
2019-01-10T07:32:54.153Z,1.90
2019-01-10T07:35:25.621Z,1.90
2019-01-10T07:37:56.133Z,1.90
2019-01-10T07:40:26.276Z,1.90
2019-01-10T07:42:55.701Z,1.90
2019-01-10T07:45:28.368Z,1.90
2019-01-10T07:47:57.825Z,1.90
2019-01-10T07:50:35.166Z,2.00
2019-01-10T07:53:14.387Z,2.00
2019-01-10T07:55:43.766Z,2.00
2019-01-10T07:58:13.152Z,1.90
2019-01-10T08:00:45.326Z,1.90
2019-01-10T08:03:14.809Z,1.90
2019-01-10T08:05:44.191Z,2.00
2019-01-10T08:08:14.359Z,2.00
2019-01-10T08:10:43.967Z,2.00
2019-01-10T08:13:13.358Z,2.00
2019-01-10T08:15:42.742Z,2.00
2019-01-10T08:18:12.156Z,2.10
2019-01-10T08:20:41.566Z,2.10
2019-01-10T08:23:10.998Z,2.10
2019-01-10T08:25:40.359Z,2.10
2019-01-10T08:28:09.801Z,2.10
2019-01-10T08:30:39.198Z,2.20
2019-01-10T08:33:08.628Z,2.20
2019-01-10T08:35:38.089Z,2.20
2019-01-10T08:38:07.474Z,2.20
2019-01-10T08:40:36.993Z,2.30
2019-01-10T08:43:06.649Z,2.30
2019-01-10T08:45:36.012Z,2.30
2019-01-10T08:48:05.521Z,2.30
2019-01-10T08:50:34.902Z,2.30
2019-01-10T08:53:04.402Z,2.20
2019-01-10T08:55:33.690Z,2.30
2019-01-10T08:58:03.058Z,2.30
2019-01-10T09:00:32.465Z,2.30
2019-01-10T09:03:01.916Z,2.30
2019-01-10T09:05:31.318Z,2.30
2019-01-10T09:08:00.697Z,2.30
2019-01-10T09:10:34.913Z,2.40
2019-01-10T09:13:04.418Z,2.40
2019-01-10T09:15:34.868Z,2.40
2019-01-10T09:18:04.971Z,2.50
2019-01-10T09:20:34.293Z,2.50
2019-01-10T09:23:03.667Z,2.50
2019-01-10T09:25:33.064Z,2.50
2019-01-10T09:28:02.440Z,2.50
2019-01-10T09:30:31.799Z,2.50
2019-01-10T09:33:01.239Z,2.60
2019-01-10T09:35:30.641Z,2.60
2019-01-10T09:38:00.069Z,2.60
2019-01-10T09:40:29.460Z,2.70
2019-01-10T09:42:59.283Z,2.70
2019-01-10T09:45:28.778Z,2.70
2019-01-10T09:47:58.560Z,2.70
2019-01-10T09:50:28.014Z,2.80
2019-01-10T09:52:57.732Z,2.80
2019-01-10T09:55:27.162Z,2.90
2019-01-10T09:57:56.728Z,2.90
2019-01-10T10:00:31.646Z,2.90
2019-01-10T10:03:01.299Z,2.90
2019-01-10T10:05:30.682Z,3.00
2019-01-10T10:08:00.100Z,3.00
2019-01-10T10:10:29.901Z,3.00
2019-01-10T10:12:59.865Z,3.00
2019-01-10T10:15:29.441Z,3.10
2019-01-10T10:17:59.175Z,3.10
2019-01-10T10:20:28.671Z,3.10
2019-01-10T10:22:58.054Z,3.10
2019-01-10T10:25:27.436Z,3.10
2019-01-10T10:27:56.904Z,3.20
2019-01-10T10:30:26.435Z,3.30
2019-01-10T10:32:56.402Z,3.30
2019-01-10T10:35:26.361Z,3.30
2019-01-10T10:37:55.688Z,3.30
2019-01-10T10:40:25.144Z,3.30
2019-01-10T10:42:54.599Z,3.40
2019-01-10T10:45:24.827Z,3.30
2019-01-10T10:47:54.256Z,3.40
2019-01-10T10:50:26.867Z,3.40
2019-01-10T10:52:56.259Z,3.50
2019-01-10T10:55:25.685Z,3.50
2019-01-10T10:57:55.321Z,3.50
2019-01-10T11:00:28.033Z,3.50
2019-01-10T11:02:57.791Z,3.50
2019-01-10T11:05:27.167Z,3.60
2019-01-10T11:07:56.609Z,3.60
2019-01-10T11:10:26.818Z,3.60
2019-01-10T11:12:56.196Z,3.70
2019-01-10T11:15:25.608Z,3.70
2019-01-10T11:17:54.986Z,3.70
2019-01-10T11:20:24.898Z,3.80
2019-01-10T11:22:54.731Z,3.90
2019-01-10T11:25:26.432Z,3.90
2019-01-10T11:27:56.118Z,3.90
2019-01-10T11:30:25.466Z,4.00
2019-01-10T11:32:54.861Z,4.00
2019-01-10T11:35:24.344Z,4.00
2019-01-10T11:37:53.939Z,4.10
2019-01-10T11:40:23.790Z,4.10
2019-01-10T11:42:53.271Z,4.20
2019-01-10T11:45:25.251Z,4.20
2019-01-10T11:47:54.548Z,4.30
2019-01-10T11:50:23.985Z,4.30
2019-01-10T11:52:53.381Z,4.40
2019-01-10T11:55:22.892Z,4.40
2019-01-10T11:57:52.360Z,4.50
2019-01-10T12:00:24.088Z,4.50
2019-01-10T12:02:53.436Z,4.60
2019-01-10T12:05:22.818Z,4.50
2019-01-10T12:07:52.427Z,4.60
2019-01-10T12:10:21.946Z,4.70
2019-01-10T12:12:51.460Z,4.70
2019-01-10T12:15:20.778Z,4.70
2019-01-10T12:17:50.255Z,4.80
2019-01-10T12:20:19.804Z,4.90
2019-01-10T12:22:49.300Z,4.90
2019-01-10T12:25:18.765Z,5.00
2019-01-10T12:27:48.403Z,5.00
2019-01-10T12:30:20.111Z,5.00
2019-01-10T12:32:49.530Z,5.00
2019-01-10T12:35:19.031Z,5.00
2019-01-10T12:37:48.519Z,5.10
2019-01-10T12:40:17.907Z,5.10
2019-01-10T12:42:47.302Z,5.20
2019-01-10T12:45:17.950Z,5.10
2019-01-10T12:47:47.436Z,5.20
2019-01-10T12:50:24.703Z,5.20
2019-01-10T12:52:54.324Z,5.10
2019-01-10T12:55:23.703Z,5.10
2019-01-10T12:57:53.178Z,5.20
2019-01-10T13:00:23.088Z,5.20
2019-01-10T13:02:53.121Z,5.20
2019-01-10T13:05:22.641Z,5.20
2019-01-10T13:07:52.022Z,5.20
2019-01-10T13:10:21.453Z,5.20
2019-01-10T13:12:51.930Z,5.20
2019-01-10T13:15:26.776Z,5.10
2019-01-10T13:17:56.211Z,5.10
2019-01-10T13:20:25.549Z,5.20
2019-01-10T13:22:55.048Z,5.20
2019-01-10T13:25:24.526Z,5.30
2019-01-10T13:27:54.438Z,5.20
2019-01-10T13:30:27.153Z,5.30
2019-01-10T13:32:57.224Z,5.30
2019-01-10T13:35:27.027Z,5.40
2019-01-10T13:37:56.517Z,5.40
2019-01-10T13:40:25.994Z,5.40
2019-01-10T13:42:55.440Z,5.40
2019-01-10T13:45:25.145Z,5.50
2019-01-10T13:47:55.123Z,5.50
2019-01-10T13:50:27.245Z,5.50
2019-01-10T13:52:57.473Z,5.50
2019-01-10T13:55:27.071Z,5.50
2019-01-10T13:57:56.551Z,5.50
2019-01-10T14:00:28.165Z,5.50
2019-01-10T14:02:57.787Z,5.50
2019-01-10T14:05:27.269Z,5.50
2019-01-10T14:07:56.803Z,5.50
2019-01-10T14:10:26.523Z,5.50
2019-01-10T14:12:56.211Z,5.50
2019-01-10T14:15:28.336Z,5.50
2019-01-10T14:17:57.828Z,5.50
2019-01-10T14:20:27.238Z,5.50
2019-01-10T14:22:56.612Z,5.60
2019-01-10T14:25:26.458Z,5.60
2019-01-10T14:27:59.944Z,5.60
2019-01-10T14:30:31.068Z,5.60
2019-01-10T14:33:00.632Z,5.60
2019-01-10T14:35:31.328Z,5.50
2019-01-10T14:38:02.029Z,5.60
2019-01-10T14:40:31.707Z,5.60
2019-01-10T14:43:01.069Z,5.60
2019-01-10T14:45:30.465Z,5.60
2019-01-10T14:48:01.846Z,5.60
2019-01-10T14:50:30.883Z,5.60
2019-01-10T14:53:00.157Z,5.60
2019-01-10T14:55:29.545Z,5.70
2019-01-10T14:57:58.974Z,5.70
2019-01-10T15:00:28.482Z,5.70
2019-01-10T15:02:57.878Z,5.70
2019-01-10T15:05:27.330Z,5.70
2019-01-10T15:07:57.567Z,5.70
2019-01-10T15:10:27.241Z,5.70
2019-01-10T15:12:56.699Z,5.70
2019-01-10T15:15:26.138Z,5.60
2019-01-10T15:17:55.965Z,5.60
2019-01-10T15:20:28.275Z,5.50
2019-01-10T15:22:57.586Z,5.60
2019-01-10T15:25:26.931Z,5.50
2019-01-10T15:27:56.350Z,5.50
2019-01-10T15:30:27.414Z,5.40
2019-01-10T15:32:56.807Z,5.40
2019-01-10T15:35:26.320Z,5.40
2019-01-10T15:37:55.744Z,5.30
2019-01-10T15:40:35.249Z,5.30
2019-01-10T15:43:06.516Z,5.40
2019-01-10T15:45:35.922Z,5.30
2019-01-10T15:48:06.043Z,5.30
2019-01-10T15:50:36.392Z,5.20
2019-01-10T15:53:05.916Z,5.20
2019-01-10T15:55:35.476Z,5.20
2019-01-10T15:58:05.124Z,5.20
2019-01-10T16:00:34.976Z,5.10
2019-01-10T16:03:04.439Z,5.20
2019-01-10T16:05:33.738Z,5.10
2019-01-10T16:08:03.127Z,5.10
2019-01-10T16:10:32.501Z,5.10
2019-01-10T16:13:01.965Z,5.10
2019-01-10T16:15:31.328Z,5.00
2019-01-10T16:18:00.763Z,5.00
2019-01-10T16:20:30.185Z,5.00
2019-01-10T16:22:59.574Z,5.00
2019-01-10T16:25:28.953Z,4.90
2019-01-10T16:27:58.340Z,4.90
2019-01-10T16:30:31.320Z,4.90
2019-01-10T16:33:00.716Z,4.90
2019-01-10T16:35:30.293Z,4.80
2019-01-10T16:37:59.703Z,4.90
2019-01-10T16:40:29.110Z,4.80
2019-01-10T16:42:58.386Z,4.80
2019-01-10T16:45:30.574Z,4.80
2019-01-10T16:47:59.924Z,4.80
2019-01-10T16:50:29.369Z,4.80
2019-01-10T16:52:58.802Z,4.90
2019-01-10T16:55:28.183Z,4.90
2019-01-10T16:57:57.546Z,4.90
2019-01-10T17:00:34.197Z,4.90
2019-01-10T17:03:03.611Z,4.90
2019-01-10T17:05:33.292Z,4.80
2019-01-10T17:08:02.685Z,4.80
2019-01-10T17:10:32.077Z,4.80
2019-01-10T17:13:01.432Z,4.80
2019-01-10T17:15:30.815Z,4.70
2019-01-10T17:18:00.084Z,4.70
2019-01-10T17:20:29.513Z,4.70
2019-01-10T17:23:00.056Z,4.60
2019-01-10T17:25:29.397Z,4.60
2019-01-10T17:27:58.783Z,4.60
2019-01-10T17:30:30.028Z,4.60
2019-01-10T17:32:59.636Z,4.50
2019-01-10T17:35:33.032Z,4.60
2019-01-10T17:38:03.070Z,4.50
2019-01-10T17:40:32.565Z,4.50
2019-01-10T17:43:02.055Z,4.40
2019-01-10T17:45:33.424Z,4.40
2019-01-10T17:48:03.280Z,4.40
2019-01-10T17:50:32.774Z,4.30
2019-01-10T17:53:02.567Z,4.30
2019-01-10T17:55:31.984Z,4.30
2019-01-10T17:58:01.497Z,4.30
2019-01-10T18:00:31.550Z,4.30
2019-01-10T18:03:01.017Z,4.20
2019-01-10T18:05:30.551Z,4.20
2019-01-10T18:08:00.051Z,4.10
2019-01-10T18:10:29.459Z,4.10
2019-01-10T18:12:58.919Z,4.10
2019-01-10T18:15:28.363Z,4.00
2019-01-10T18:17:57.825Z,4.00
2019-01-10T18:20:29.947Z,4.00
2019-01-10T18:22:59.368Z,4.00
2019-01-10T18:25:29.423Z,4.00
2019-01-10T18:27:59.070Z,4.00
2019-01-10T18:30:28.509Z,4.00
2019-01-10T18:32:57.909Z,4.00
2019-01-10T18:35:27.415Z,4.00
2019-01-10T18:37:56.739Z,4.00
2019-01-10T18:40:26.107Z,4.00
2019-01-10T18:42:55.525Z,4.00
2019-01-10T18:45:30.092Z,4.00
2019-01-10T18:47:59.471Z,4.00
2019-01-10T18:50:28.825Z,4.00
2019-01-10T18:52:58.514Z,4.00
2019-01-10T18:55:30.245Z,4.00
2019-01-10T18:57:59.704Z,4.00
2019-01-10T19:00:30.373Z,4.00
2019-01-10T19:03:00.876Z,3.90
2019-01-10T19:05:31.126Z,3.90
2019-01-10T19:08:00.705Z,3.90
2019-01-10T19:10:30.274Z,3.90
2019-01-10T19:12:59.805Z,3.90
2019-01-10T19:15:29.323Z,3.90
2019-01-10T19:18:03.385Z,3.90
2019-01-10T19:20:30.419Z,3.90
2019-01-10T19:23:01.604Z,3.90
2019-01-10T19:25:31.348Z,3.90
2019-01-10T19:28:00.978Z,3.80
2019-01-10T19:30:35.250Z,3.70
2019-01-10T19:33:05.390Z,3.70
2019-01-10T19:35:34.866Z,3.70
2019-01-10T19:38:04.938Z,3.70
2019-01-10T19:40:34.452Z,3.70
2019-01-10T19:43:04.123Z,3.70
2019-01-10T19:45:33.583Z,3.70
2019-01-10T19:48:09.512Z,3.70
2019-01-10T19:50:34.208Z,3.70
2019-01-10T19:53:03.636Z,3.70
2019-01-10T19:55:33.037Z,3.70
2019-01-10T19:58:02.451Z,3.70
2019-01-10T20:00:40.375Z,3.60
2019-01-10T20:03:09.867Z,3.60
2019-01-10T20:05:42.402Z,3.60
2019-01-10T20:08:11.911Z,3.60
2019-01-10T20:10:41.400Z,3.60
2019-01-10T20:13:10.797Z,3.70
2019-01-10T20:15:40.169Z,3.60
2019-01-10T20:18:15.918Z,3.60
2019-01-10T20:20:41.865Z,3.60
2019-01-10T20:23:21.332Z,3.50
2019-01-10T20:25:50.734Z,3.60
2019-01-10T20:28:21.266Z,3.60
2019-01-10T20:30:50.677Z,3.50
2019-01-10T20:33:20.038Z,3.50
2019-01-10T20:35:49.469Z,3.50
2019-01-10T20:38:18.918Z,3.50
2019-01-10T20:40:48.371Z,3.50
2019-01-10T20:43:17.684Z,3.50
2019-01-10T20:45:47.198Z,3.40
2019-01-10T20:48:22.146Z,3.40
2019-01-10T20:50:47.835Z,3.40
2019-01-10T20:53:17.312Z,3.40
2019-01-10T20:55:46.721Z,3.40
2019-01-10T20:58:16.138Z,3.40
2019-01-10T21:00:45.526Z,3.40
2019-01-10T21:03:14.996Z,3.40
2019-01-10T21:05:44.340Z,3.40
2019-01-10T21:08:13.744Z,3.40
2019-01-10T21:10:43.148Z,3.50
2019-01-10T21:13:12.551Z,3.50
2019-01-10T21:15:41.942Z,3.50
2019-01-10T21:18:11.344Z,3.50
2019-01-10T21:20:40.915Z,3.50
2019-01-10T21:23:10.368Z,3.50
2019-01-10T21:25:39.787Z,3.50
2019-01-10T21:28:09.227Z,3.50
2019-01-10T21:30:38.645Z,3.40
2019-01-10T21:33:08.047Z,3.40
2019-01-10T21:35:37.336Z,3.30
2019-01-10T21:38:06.681Z,3.30
2019-01-10T21:40:36.011Z,3.30
2019-01-10T21:43:05.583Z,3.30
2019-01-10T21:45:34.990Z,3.30
2019-01-10T21:48:04.627Z,3.30
2019-01-10T21:50:33.998Z,3.20
2019-01-10T21:53:04.184Z,3.20
2019-01-10T21:55:33.834Z,3.20
2019-01-10T21:58:04.080Z,3.20
2019-01-10T22:00:33.565Z,3.20
2019-01-10T22:03:03.510Z,3.30
2019-01-10T22:05:32.837Z,3.40
2019-01-10T22:08:04.778Z,3.30
2019-01-10T22:10:35.089Z,3.30
2019-01-10T22:13:04.597Z,3.20
2019-01-10T22:15:34.003Z,3.20
2019-01-10T22:18:07.805Z,3.20
2019-01-10T22:20:37.189Z,3.20
2019-01-10T22:23:06.520Z,3.20
2019-01-10T22:25:35.930Z,3.20
2019-01-10T22:28:05.437Z,3.20
2019-01-10T22:30:34.851Z,3.20
2019-01-10T22:33:04.224Z,3.10
2019-01-10T22:35:33.692Z,3.20
2019-01-10T22:38:03.131Z,3.20
2019-01-10T22:40:32.584Z,3.20
2019-01-10T22:43:01.904Z,3.20
2019-01-10T22:45:31.205Z,3.20
2019-01-10T22:48:00.640Z,3.10
2019-01-10T22:50:30.757Z,3.10
2019-01-10T22:53:00.220Z,3.10
2019-01-10T22:55:29.554Z,3.10
2019-01-10T22:57:58.955Z,3.10
2019-01-10T23:01:27.416Z,3.10
2019-01-10T23:03:56.918Z,3.10
2019-01-10T23:06:26.281Z,3.10
2019-01-10T23:08:55.651Z,3.10
2019-01-10T23:11:25.981Z,3.10
2019-01-10T23:14:02.267Z,3.10
2019-01-10T23:16:33.436Z,3.20
2019-01-10T23:19:02.841Z,3.10
2019-01-10T23:21:34.218Z,3.20
2019-01-10T23:24:13.577Z,3.20
2019-01-10T23:26:54.842Z,3.20
2019-01-10T23:29:30.827Z,3.20
2019-01-10T23:32:01.675Z,3.20
2019-01-10T23:34:31.108Z,3.20
2019-01-10T23:37:00.490Z,3.20
2019-01-10T23:39:29.881Z,3.30
2019-01-10T23:41:59.240Z,3.20
2019-01-10T23:44:28.477Z,3.20
2019-01-10T23:46:57.931Z,3.20
2019-01-10T23:49:27.278Z,3.20
2019-01-10T23:51:56.639Z,3.20
2019-01-10T23:54:26.103Z,3.30
2019-01-10T23:56:55.457Z,3.20
2019-01-10T23:59:24.921Z,3.30
